Flight Track Log - Related Links

Times and Time Zones

All times are in EDT time to prevent confusion due to time zone crossing. See the DAL1981 flight status page for this flight to view local times or setup timezone preferences in your user account.

Time Position Orientation Groundspeed Altitude Reporting Facility
EDT Latitude Longitude Course Direction KTS MPH feet Rate Location/Type
Fri 07:05:03 AM 42.7503 -73.8311 180° South 150 173 1,600  Level Boston Center
Fri 07:06:04 AM 42.7683 -73.8994 290° West 228 262 3,100 2,140 Climbing Boston Center
Fri 07:07:00 AM 42.5260 -74.1140 200° South  Level Estimated
Fri 07:07:26 AM 42.8381 -73.9889 317° Northwest 272 313 6,700  Level Boston Center
Fri 07:08:00 AM 42.4514 -74.2175 198° South  Level Estimated
Fri 07:08:38 AM 42.8594 -74.0886 286° West 253 291 9,700  Level Boston Center
Fri 07:09:00 AM 42.3767 -74.3208 200° South  Level Estimated
Fri 07:09:39 AM 42.8100 -74.1892 236° Southwest 261 300 11,500  Level Boston Center
Fri 07:10:00 AM 42.3020 -74.4238 180° South  Level Estimated
Fri 07:10:38 AM 42.7228 -74.1697 171° South 288 331 13,400  Level Boston Center
Fri 07:11:38 AM 42.6108 -74.1383 168° South 358 412 16,100 2,700 Climbing Boston Center
Fri 07:12:38 AM 42.5194 -74.1106 167° South 381 438 18,800 2,231 Climbing Boston Center
Fri 07:13:39 AM 42.4156 -74.0853 170° South 381 438 20,600 1,700 Climbing Boston Center
Fri 07:14:38 AM 42.3056 -74.0514 167° South 391 450 22,200 1,563 Climbing Boston Center
Fri 07:15:38 AM 42.1953 -74.0347 174° South 401 461 23,700 1,400 Climbing Boston Center
Fri 07:16:38 AM 42.0806 -74.0486 185° South 406 467 25,000 1,756 Climbing Boston Center
Fri 07:19:03 AM 41.8333 -74.1589 198° South 394 453 29,700 1,855 Climbing New York Center
Fri 07:20:05 AM 41.7386 -74.2042 200° South 380 437 31,400 1,250 Climbing New York Center
Fri 07:21:03 AM 41.6497 -74.2522 202° Southwest 366 421 32,200 706 Climbing New York Center
Fri 07:22:04 AM 41.5631 -74.2950 200° South 354 407 32,800 645 Climbing New York Center
Fri 07:23:04 AM 41.4742 -74.3428 202° Southwest 347 399 33,500 610 Climbing New York Center
Fri 07:24:02 AM 41.3767 -74.3983 203° Southwest 341 392 34,000 252 Climbing New York Center
Fri 07:25:03 AM 41.2953 -74.4686 213° Southwest 341 392 34,000  Level New York Center
Fri 07:26:03 AM 41.2181 -74.5442 216° Southwest 351 404 34,000  Level New York Center
Fri 07:27:04 AM 41.1425 -74.6228 218° Southwest 351 404 34,000  Level New York Center
Fri 07:28:04 AM 41.0669 -74.7011 218° Southwest 351 404 34,000  Level New York Center
Fri 07:29:02 AM 40.9894 -74.7761 216° Southwest 357 411 34,000  Level New York Center
Fri 07:30:05 AM 40.9139 -74.8569 219° Southwest 357 411 34,000 -49 Level New York Center
Fri 07:31:05 AM 40.8361 -74.9372 218° Southwest 357 411 33,900  Descending New York Center
Fri 07:32:03 AM 40.7583 -75.0147 217° Southwest 357 411 34,000 50 Climbing New York Center
Fri 07:33:04 AM 40.6825 -75.0922 218° Southwest 357 411 34,000  Level New York Center
Fri 07:34:04 AM 40.6044 -75.1747 219° Southwest 357 411 34,000  Level New York Center
Fri 07:35:03 AM 40.5286 -75.2544 219° Southwest 357 411 34,000  Level New York Center
Fri 07:36:02 AM 40.4483 -75.3336 217° Southwest 357 411 34,000  Level New York Center
Fri 07:37:03 AM 40.3703 -75.4131 218° Southwest 357 411 34,000  Level New York Center
Fri 07:38:02 AM 40.2919 -75.4922 218° Southwest 362 417 34,000  Level New York Center
Fri 07:39:03 AM 40.2181 -75.5714 219° Southwest 362 417 34,000  Level New York Center
Fri 07:40:03 AM 40.1711 -75.6986 244° Southwest 362 417 34,000  Level New York Center
Fri 07:41:04 AM 40.1328 -75.8153 247° West 380 437 34,000  Level New York Center
Fri 07:42:04 AM 40.0878 -75.9422 245° Southwest 385 443 34,000  Level New York Center
Fri 07:43:05 AM 40.0386 -76.0633 242° Southwest 390 449 34,000  Level New York Center
Fri 07:44:02 AM 39.9772 -76.1725 234° Southwest 385 443 34,000  Level New York Center
Fri 07:45:04 AM 39.9031 -76.2914 231° Southwest 385 443 34,000  Level New York Center
Fri 07:46:04 AM 39.8417 -76.4000 234° Southwest 385 443 34,000  Level New York Center
Fri 07:46:52 AM 39.8000 -76.4772 235° Southwest 387 445 34,000  Level Washington Center
Fri 07:47:52 AM 39.7219 -76.5925 229° Southwest 381 438 34,000  Level Washington Center
Fri 07:48:50 AM 39.6586 -76.7019 233° Southwest 387 445 34,000  Level Washington Center
Fri 07:49:50 AM 39.5928 -76.8086 231° Southwest 387 445 34,000  Level Washington Center
Fri 07:50:51 AM 39.5292 -76.9181 233° Southwest 387 445 34,000  Level Washington Center
Fri 07:51:51 AM 39.4572 -77.0161 226° Southwest 387 445 34,000  Level Washington Center
Fri 07:52:50 AM 39.3769 -77.1031 220° Southwest 379 436 34,000  Level Washington Center
Fri 07:53:50 AM 39.2925 -77.1872 218° Southwest 379 436 34,000  Level Washington Center
Fri 07:54:52 AM 39.2122 -77.2739 220° Southwest 384 442 34,000  Level Washington Center
Fri 07:55:50 AM 39.1297 -77.3575 218° Southwest 384 442 34,000  Level Washington Center
Fri 07:56:51 AM 39.0492 -77.4411 219° Southwest 384 442 34,000  Level Washington Center
Fri 07:57:52 AM 38.9667 -77.5272 219° Southwest 384 442 34,000  Level Washington Center
Fri 07:58:49 AM 38.8817 -77.6156 219° Southwest 389 448 34,000  Level Washington Center
Fri 07:59:50 AM 38.7989 -77.7039 220° Southwest 389 448 34,000  Level Washington Center
Fri 08:00:51 AM 38.7183 -77.7842 218° Southwest 397 457 34,000  Level Washington Center
Fri 08:01:49 AM 38.6375 -77.8719 220° Southwest 397 457 34,000  Level Washington Center
Fri 08:02:50 AM 38.5728 -77.9817 233° Southwest 392 451 34,000  Level Washington Center
Fri 08:03:51 AM 38.5081 -78.0936 234° Southwest 392 451 34,000  Level Washington Center
Fri 08:04:52 AM 38.4431 -78.2056 233° Southwest 392 451 34,000  Level Washington Center
Fri 08:05:52 AM 38.3781 -78.3169 233° Southwest 397 457 34,000  Level Washington Center
Fri 08:06:49 AM 38.3108 -78.4311 233° Southwest 402 463 34,000  Level Washington Center
Fri 08:07:50 AM 38.2497 -78.5372 234° Southwest 400 460 34,000  Level Washington Center
Fri 08:08:50 AM 38.1844 -78.6508 234° Southwest 400 460 34,000  Level Washington Center
Fri 08:09:51 AM 38.1169 -78.7617 232° Southwest 400 460 34,000  Level Washington Center
Fri 08:10:50 AM 38.0514 -78.8694 232° Southwest 405 466 34,000  Level Washington Center
Fri 08:11:50 AM 37.9769 -78.9900 232° Southwest 405 466 34,000  Level Washington Center
Fri 08:12:50 AM 37.9092 -79.1003 232° Southwest 405 466 34,000  Level Washington Center
Fri 08:13:51 AM 37.8375 -79.2019 228° Southwest 405 466 34,000  Level Washington Center
Fri 08:14:52 AM 37.7656 -79.3036 228° Southwest 399 459 34,000  Level Washington Center
Fri 08:15:52 AM 37.6894 -79.3997 225° Southwest 394 453 34,000  Level Washington Center
Fri 08:16:50 AM 37.6239 -79.4908 228° Southwest 394 453 34,000  Level Washington Center
Fri 08:17:50 AM 37.5431 -79.6044 228° Southwest 389 448 34,000  Level Washington Center
Fri 08:18:50 AM 37.4794 -79.6928 228° Southwest 389 448 34,000  Level Washington Center
Fri 08:19:51 AM 37.4050 -79.7958 228° Southwest 398 458 34,000 -250 Level Washington Center
Fri 08:20:50 AM 37.3306 -79.8964 227° Southwest 398 458 33,500 -649 Descending Washington Center
Fri 08:22:56 AM 37.1794 -80.0975 227° Southwest 375 432 32,000 -484 Descending Atlanta Center
Fri 08:23:56 AM 37.1075 -80.1950 227° Southwest 375 432 32,000  Level Atlanta Center
Fri 08:24:56 AM 37.0353 -80.2919 227° Southwest 380 437 32,000  Level Atlanta Center
Fri 08:25:56 AM 36.9633 -80.3917 228° Southwest 380 437 32,000  Level Atlanta Center
Fri 08:26:56 AM 36.8831 -80.4992 227° Southwest 380 437 32,000  Level Atlanta Center
Fri 08:27:56 AM 36.8086 -80.5931 225° Southwest 380 437 32,000  Level Atlanta Center
Fri 08:28:56 AM 36.7361 -80.6894 227° Southwest 380 437 32,000  Level Atlanta Center
Fri 08:29:56 AM 36.6639 -80.7883 228° Southwest 380 437 32,000  Level Atlanta Center
Fri 08:30:56 AM 36.5892 -80.8869 227° Southwest 390 449 32,000  Level Atlanta Center
Fri 08:31:56 AM 36.5125 -80.9881 227° Southwest 395 455 32,000  Level Atlanta Center
Fri 08:32:56 AM 36.4378 -81.0867 227° Southwest 401 461 32,000  Level Atlanta Center
Fri 08:33:56 AM 36.3589 -81.1900 227° Southwest 406 467 32,000  Level Atlanta Center
Fri 08:34:56 AM 36.2842 -81.2906 227° Southwest 406 467 32,000  Level Atlanta Center
Fri 08:35:56 AM 36.2069 -81.3883 226° Southwest 406 467 32,000  Level Atlanta Center
Fri 08:36:56 AM 36.1300 -81.4936 228° Southwest 412 474 32,000  Level Atlanta Center
Fri 08:37:56 AM 36.0628 -81.5781 225° Southwest 398 458 32,000  Level Atlanta Center
Fri 08:38:56 AM 35.9875 -81.6778 227° Southwest 398 458 32,000  Level Atlanta Center
Fri 08:39:56 AM 35.9103 -81.7775 226° Southwest 403 464 32,000  Level Atlanta Center
Fri 08:40:56 AM 35.8328 -81.8769 226° Southwest 403 464 32,000  Level Atlanta Center
Fri 08:41:56 AM 35.7553 -81.9789 227° Southwest 403 464 32,000  Level Atlanta Center
Fri 08:42:56 AM 35.6714 -82.0756 223° Southwest 408 470 32,000  Level Atlanta Center
Fri 08:43:56 AM 35.5892 -82.1694 223° Southwest 408 470 32,000  Level Atlanta Center
Fri 08:44:56 AM 35.5031 -82.2631 222° Southwest 414 476 32,000 -500 Level Atlanta Center
Fri 08:45:56 AM 35.4189 -82.3592 223° Southwest 414 476 31,000 -1,400 Descending Atlanta Center
Fri 08:46:56 AM 35.3264 -82.4681 224° Southwest 414 476 29,200 -1,650 Descending Atlanta Center
Fri 08:47:56 AM 35.2400 -82.5664 223° Southwest 414 476 27,700 -1,350 Descending Atlanta Center
Fri 08:48:56 AM 35.1617 -82.6492 221° Southwest 414 476 26,500 -1,100 Descending Atlanta Center
Fri 08:49:56 AM 35.0772 -82.7494 224° Southwest 414 476 25,500 -950 Descending Atlanta Center
Fri 08:50:56 AM 34.9947 -82.8419 223° Southwest 414 476 24,600 -950 Descending Atlanta Center
Fri 08:51:56 AM 34.9039 -82.9397 221° Southwest 407 468 23,600 -800 Descending Atlanta Center
Fri 08:52:56 AM 34.8211 -83.0342 223° Southwest 407 468 23,000 -300 Descending Atlanta Center
Fri 08:53:56 AM 34.7383 -83.1236 222° Southwest 407 468 23,000  Level Atlanta Center
Fri 08:54:56 AM 34.6556 -83.2156 222° Southwest 412 474 23,000 -550 Level Atlanta Center
Fri 08:55:56 AM 34.5728 -83.3097 223° Southwest 412 474 21,900 -1,600 Descending Atlanta Center
Fri 08:56:56 AM 34.5022 -83.3858 222° Southwest 400 460 19,800 -2,300 Descending Atlanta Center
Fri 08:57:56 AM 34.4211 -83.4772 223° Southwest 395 455 17,300 -2,550 Descending Atlanta Center
Fri 08:58:56 AM 34.3444 -83.5633 223° Southwest 390 449 14,700 -2,550 Descending Atlanta Center
Fri 08:59:56 AM 34.2675 -83.6467 222° Southwest 384 442 12,200 -1,350 Descending Atlanta Center
Fri 09:00:56 AM 34.1906 -83.7300 222° Southwest 384 442 12,000 -100 Descending Atlanta Center
Fri 09:01:56 AM 34.1217 -83.8056 222° Southwest 361 415 12,000  Level Atlanta Center
Fri 09:02:56 AM 34.0489 -83.8858 222° Southwest 335 386 12,000 -308 Level Atlanta Center
Fri 09:03:14 AM 34.0333 -83.9000 217° Southwest 315 362 11,600 -1,077 Descending Atlanta TRACON
Fri 09:04:14 AM 33.9500 -83.9333 198° South 322 371 10,600 -789 Descending Atlanta TRACON
Fri 09:05:08 AM 33.8667 -83.9500 189° South 315 362 10,100 -765 Descending Atlanta TRACON
Fri 09:05:56 AM 33.7964 -83.9489 179° South 318 366 9,300 -944 Descending Atlanta Center
Fri 09:06:56 AM 33.7086 -83.9564 184° South 318 366 8,400 -1,150 Descending Atlanta Center
Fri 09:07:56 AM 33.6439 -83.9989 209° Southwest 282 325 7,000 -1,050 Descending Atlanta Center
Fri 09:08:56 AM 33.6294 -84.0861 259° West 243 280 6,300 -750 Descending Atlanta Center
Fri 09:09:56 AM 33.6333 -84.1667 273° West 229 264 5,500 -900 Descending Atlanta TRACON
Fri 09:10:56 AM 33.6333 -84.2333 270° West 186 214 4,500 -1,000 Descending Atlanta TRACON

Login

Don't have an account? Register now (free) for customized features, flight alerts, and more!